createdAt,value
2023-01-29T00:02:52.372Z,15.90
2023-01-29T00:05:55.462Z,15.63
2023-01-29T00:08:58.976Z,16.05
2023-01-29T00:12:02.375Z,15.73
2023-01-29T00:15:10.743Z,15.70
2023-01-29T00:18:14.726Z,16.58
2023-01-29T00:21:20.186Z,16.83
2023-01-29T00:24:25.857Z,15.18
2023-01-29T00:27:29.961Z,17.25
2023-01-29T00:30:33.766Z,15.38
2023-01-29T00:33:36.984Z,15.25
2023-01-29T00:36:40.139Z,15.43
2023-01-29T00:39:48.097Z,14.48
2023-01-29T00:43:10.589Z,15.82
2023-01-29T00:46:14.767Z,13.77
2023-01-29T00:49:18.069Z,15.45
2023-01-29T00:52:27.082Z,15.07
2023-01-29T00:55:30.336Z,14.70
2023-01-29T00:58:36.079Z,15.43
2023-01-29T01:01:59.027Z,15.32
2023-01-29T01:05:06.335Z,14.43
2023-01-29T01:08:29.548Z,14.93
2023-01-29T01:11:34.357Z,14.63
2023-01-29T01:14:37.476Z,15.52
2023-01-29T01:17:40.525Z,15.35
2023-01-29T01:20:51.707Z,14.38
2023-01-29T01:23:54.775Z,14.73
2023-01-29T01:26:57.873Z,14.18
2023-01-29T01:30:01.093Z,14.23
2023-01-29T01:33:06.802Z,13.73
2023-01-29T01:36:10.062Z,13.90
2023-01-29T01:39:13.558Z,14.03
2023-01-29T01:42:16.755Z,13.77
2023-01-29T01:45:26.148Z,14.55
2023-01-29T01:48:30.760Z,13.73
2023-01-29T01:51:39.391Z,14.73
2023-01-29T01:54:44.674Z,14.47
2023-01-29T01:57:53.125Z,14.65
2023-01-29T02:00:57.502Z,16.20
2023-01-29T02:04:26.372Z,14.45
2023-01-29T02:07:48.161Z,15.60
2023-01-29T02:10:51.431Z,15.93
2023-01-29T02:13:54.756Z,15.38
2023-01-29T02:17:02.234Z,14.88
2023-01-29T02:20:18.150Z,13.88
2023-01-29T02:23:43.496Z,13.95
2023-01-29T02:26:59.925Z,14.20
2023-01-29T02:30:36.259Z,15.05
2023-01-29T02:33:59.562Z,14.57
2023-01-29T02:37:09.863Z,14.13
2023-01-29T02:40:37.229Z,15.75
2023-01-29T02:43:40.353Z,12.97
2023-01-29T02:46:51.993Z,14.38
2023-01-29T02:50:26.020Z,15.27
2023-01-29T02:53:35.324Z,14.30
2023-01-29T02:56:51.934Z,14.93
2023-01-29T03:00:10.659Z,14.63
2023-01-29T03:03:17.892Z,14.15
2023-01-29T03:06:28.551Z,15.20
2023-01-29T03:09:39.835Z,14.93
2023-01-29T03:12:47.352Z,14.10
2023-01-29T03:16:01.753Z,14.33
2023-01-29T03:19:36.895Z,14.63
2023-01-29T03:22:51.905Z,14.88
2023-01-29T03:26:18.316Z,14.77
2023-01-29T03:29:40.996Z,15.43
2023-01-29T03:32:47.036Z,14.07
2023-01-29T03:35:56.994Z,14.73
2023-01-29T03:39:00.507Z,15.50
2023-01-29T03:42:22.574Z,14.10
2023-01-29T03:46:08.664Z,14.48
2023-01-29T03:49:19.783Z,13.23
2023-01-29T03:52:39.126Z,13.70
2023-01-29T03:55:59.894Z,12.73
2023-01-29T03:59:12.071Z,13.23
2023-01-29T04:02:49.272Z,13.15
2023-01-29T04:05:52.647Z,14.57
2023-01-29T04:09:11.012Z,14.65
2023-01-29T04:12:26.966Z,15.65
2023-01-29T04:15:34.882Z,15.02
2023-01-29T04:18:37.919Z,13.90
2023-01-29T04:21:45.151Z,14.90
2023-01-29T04:24:50.329Z,14.05
2023-01-29T04:28:18.387Z,14.32
2023-01-29T04:31:25.347Z,12.45
2023-01-29T04:34:35.601Z,13.23
2023-01-29T04:37:45.913Z,12.90
2023-01-29T04:40:57.253Z,13.02
2023-01-29T04:44:15.441Z,14.40
2023-01-29T04:47:43.586Z,12.63
2023-01-29T04:50:55.835Z,12.57
2023-01-29T04:54:14.121Z,12.30
2023-01-29T04:57:25.646Z,13.70
2023-01-29T05:00:35.136Z,14.90
2023-01-29T05:03:40.815Z,12.70
2023-01-29T05:06:45.109Z,13.90
2023-01-29T05:09:49.733Z,13.83
2023-01-29T05:13:00.691Z,13.68
2023-01-29T05:16:21.891Z,13.57
2023-01-29T05:19:24.848Z,13.57
2023-01-29T05:22:28.095Z,13.65
2023-01-29T05:25:33.302Z,13.87
2023-01-29T05:28:36.242Z,15.85
2023-01-29T05:31:39.404Z,14.02
2023-01-29T05:34:42.715Z,13.02
2023-01-29T05:37:45.908Z,13.48
2023-01-29T05:41:08.510Z,11.60
2023-01-29T05:44:11.481Z,11.95
2023-01-29T05:47:14.294Z,12.68
2023-01-29T05:50:17.561Z,11.90
2023-01-29T05:53:20.612Z,13.27
2023-01-29T05:56:23.646Z,12.23
2023-01-29T05:59:26.573Z,10.77
2023-01-29T06:02:32.673Z,12.38
2023-01-29T06:05:38.729Z,11.95
2023-01-29T06:08:41.956Z,12.77
2023-01-29T06:11:45.085Z,10.83
2023-01-29T06:14:48.032Z,11.98
2023-01-29T06:17:50.725Z,11.10
2023-01-29T06:20:53.797Z,14.75
2023-01-29T06:23:56.863Z,10.93
2023-01-29T06:26:59.956Z,10.47
2023-01-29T06:30:04.705Z,12.32
2023-01-29T06:33:07.738Z,13.30
2023-01-29T06:36:10.668Z,11.80
2023-01-29T06:39:13.500Z,13.13
2023-01-29T06:42:16.434Z,11.40
2023-01-29T06:45:19.413Z,11.40
2023-01-29T06:48:23.789Z,11.63
2023-01-29T06:51:26.684Z,11.48
2023-01-29T06:54:29.770Z,10.65
2023-01-29T06:57:32.620Z,10.93
2023-01-29T07:00:36.325Z,12.63
2023-01-29T07:03:39.404Z,10.45
2023-01-29T07:06:42.109Z,10.82
2023-01-29T07:09:44.831Z,12.40
2023-01-29T07:12:47.834Z,11.40
2023-01-29T07:15:50.560Z,13.00
2023-01-29T07:18:53.416Z,12.95
2023-01-29T07:21:56.294Z,11.98
2023-01-29T07:24:59.220Z,12.48
2023-01-29T07:28:02.492Z,13.20
2023-01-29T07:31:06.283Z,13.25
2023-01-29T07:34:09.510Z,13.85
2023-01-29T07:37:12.475Z,14.23
2023-01-29T07:40:16.249Z,13.77
2023-01-29T07:43:19.565Z,13.90
2023-01-29T07:46:22.460Z,12.40
2023-01-29T07:49:27.221Z,13.25
2023-01-29T07:52:31.636Z,13.05
2023-01-29T07:55:34.527Z,14.32
2023-01-29T07:58:37.402Z,12.63
2023-01-29T08:01:40.188Z,13.15
2023-01-29T08:04:42.988Z,12.98
2023-01-29T08:07:49.349Z,13.02
2023-01-29T08:11:03.120Z,13.05
2023-01-29T08:14:06.025Z,11.83
2023-01-29T08:17:08.822Z,12.25
2023-01-29T08:20:19.698Z,9.75
2023-01-29T08:23:23.307Z,11.88
2023-01-29T08:26:27.972Z,12.23
2023-01-29T08:29:31.373Z,10.83
2023-01-29T08:32:34.316Z,11.25
2023-01-29T08:35:37.662Z,10.90
2023-01-29T08:38:40.673Z,11.40
2023-01-29T08:41:43.901Z,11.68
2023-01-29T08:44:47.026Z,9.93
2023-01-29T08:47:50.744Z,10.52
2023-01-29T08:50:57.105Z,10.68
2023-01-29T08:54:00.197Z,11.27
2023-01-29T08:57:03.776Z,10.18
2023-01-29T09:00:09.508Z,12.10
2023-01-29T09:03:12.577Z,11.43
2023-01-29T09:06:15.460Z,10.98
2023-01-29T09:09:18.700Z,10.25
2023-01-29T09:12:21.632Z,10.52
2023-01-29T09:15:24.771Z,9.60
2023-01-29T09:18:28.481Z,10.65
2023-01-29T09:21:31.601Z,9.93
2023-01-29T09:24:35.312Z,11.68
2023-01-29T09:27:38.267Z,10.50
2023-01-29T09:30:41.384Z,10.23
2023-01-29T09:33:44.371Z,9.50
2023-01-29T09:36:47.318Z,10.98
2023-01-29T09:39:50.602Z,10.20
2023-01-29T09:43:43.218Z,9.88
2023-01-29T09:46:48.707Z,10.00
2023-01-29T09:50:18.428Z,9.05
2023-01-29T09:53:34.714Z,9.68
2023-01-29T09:56:37.619Z,9.88
2023-01-29T09:59:40.714Z,10.35
2023-01-29T10:03:03.993Z,10.43
2023-01-29T10:06:37.407Z,10.18
2023-01-29T10:10:07.878Z,10.77
2023-01-29T10:13:37.152Z,10.13
2023-01-29T10:16:46.254Z,10.52
2023-01-29T10:20:07.950Z,10.37
2023-01-29T10:23:38.732Z,9.45
2023-01-29T10:26:41.751Z,8.80
2023-01-29T10:29:47.524Z,9.55
2023-01-29T10:32:50.937Z,9.05
2023-01-29T10:36:00.307Z,9.67
2023-01-29T10:39:03.498Z,8.05
2023-01-29T10:42:34.226Z,9.77
2023-01-29T10:46:15.600Z,9.43
2023-01-29T10:49:37.380Z,9.27
2023-01-29T10:52:58.997Z,9.73
2023-01-29T10:56:31.371Z,8.85
2023-01-29T10:59:47.957Z,8.32
2023-01-29T11:02:52.153Z,9.13
2023-01-29T11:06:13.085Z,6.82
2023-01-29T11:09:26.838Z,7.30
2023-01-29T11:12:32.324Z,7.45
2023-01-29T11:15:35.275Z,7.88
2023-01-29T11:18:59.764Z,7.95
2023-01-29T11:22:04.543Z,8.13
2023-01-29T11:25:26.307Z,7.90
2023-01-29T11:28:47.073Z,8.48
2023-01-29T11:31:50.045Z,9.20
2023-01-29T11:35:16.370Z,8.30
2023-01-29T11:38:28.271Z,7.50
2023-01-29T11:41:31.082Z,9.63
2023-01-29T11:44:40.674Z,8.68
2023-01-29T11:47:48.446Z,8.75
2023-01-29T11:51:02.448Z,9.35
2023-01-29T11:54:06.622Z,8.32
2023-01-29T11:57:24.012Z,9.87
2023-01-29T12:00:29.988Z,9.30
2023-01-29T12:03:39.772Z,7.68
2023-01-29T12:06:45.599Z,7.05
2023-01-29T12:09:57.186Z,7.75
2023-01-29T12:13:10.098Z,5.80
2023-01-29T12:16:24.030Z,6.00
2023-01-29T12:19:35.404Z,5.95
2023-01-29T12:23:11.473Z,6.40
2023-01-29T12:26:33.014Z,5.40
2023-01-29T12:30:13.262Z,5.80
2023-01-29T12:33:58.538Z,6.43
2023-01-29T12:37:11.652Z,7.07
2023-01-29T12:40:17.197Z,7.82
2023-01-29T12:43:41.416Z,5.80
2023-01-29T12:46:50.791Z,5.70
2023-01-29T12:50:02.534Z,5.50
2023-01-29T12:53:08.712Z,5.20
2023-01-29T12:56:19.329Z,6.18
2023-01-29T12:59:37.784Z,5.70
2023-01-29T13:03:19.623Z,5.00
2023-01-29T13:06:34.539Z,6.15
2023-01-29T13:09:41.829Z,6.47
2023-01-29T13:12:55.951Z,6.35
2023-01-29T13:16:01.451Z,5.80
2023-01-29T13:19:24.249Z,5.70
2023-01-29T13:22:40.759Z,5.85
2023-01-29T13:25:43.915Z,6.13
2023-01-29T13:28:48.394Z,5.18
2023-01-29T13:31:53.708Z,4.68
2023-01-29T13:35:05.159Z,4.67
2023-01-29T13:38:25.687Z,5.10
2023-01-29T13:41:37.351Z,5.35
2023-01-29T13:44:41.694Z,4.80
2023-01-29T13:47:45.763Z,5.10
2023-01-29T13:50:51.512Z,4.57
2023-01-29T13:54:04.203Z,7.00
2023-01-29T13:57:35.933Z,6.45
2023-01-29T14:00:38.676Z,6.65
2023-01-29T14:04:03.335Z,6.05
2023-01-29T14:07:48.888Z,7.70
2023-01-29T14:11:17.323Z,4.25
2023-01-29T14:15:02.720Z,6.70
2023-01-29T14:18:08.843Z,7.85
2023-01-29T14:21:12.043Z,7.55
2023-01-29T14:24:21.321Z,5.80
2023-01-29T14:27:28.290Z,7.78
2023-01-29T14:30:34.507Z,8.30
2023-01-29T14:33:41.157Z,8.35
2023-01-29T14:36:47.409Z,8.75
2023-01-29T14:39:59.562Z,6.10
2023-01-29T14:43:20.148Z,7.80
2023-01-29T14:46:35.466Z,7.65
2023-01-29T14:50:26.377Z,8.52
2023-01-29T14:53:44.423Z,9.00
2023-01-29T14:57:06.144Z,8.70
2023-01-29T15:00:24.376Z,7.88
2023-01-29T15:03:48.481Z,9.60
2023-01-29T15:07:32.677Z,7.68
2023-01-29T15:11:13.235Z,7.85
2023-01-29T15:14:16.878Z,8.97
2023-01-29T15:18:02.319Z,8.38
2023-01-29T15:21:15.257Z,8.52
2023-01-29T15:24:18.144Z,6.97
2023-01-29T15:27:20.976Z,8.25
2023-01-29T15:30:33.717Z,10.10
2023-01-29T15:33:38.828Z,10.40
2023-01-29T15:36:41.715Z,8.35
2023-01-29T15:39:45.634Z,7.15
2023-01-29T15:42:48.953Z,7.88
2023-01-29T15:45:54.130Z,8.70
2023-01-29T15:49:00.462Z,9.05
2023-01-29T15:52:08.104Z,10.82
2023-01-29T15:55:15.445Z,11.82
2023-01-29T15:58:24.531Z,10.18
2023-01-29T16:01:28.744Z,9.00
2023-01-29T16:04:32.086Z,9.52
2023-01-29T16:07:36.355Z,7.18
2023-01-29T16:10:42.237Z,10.63
2023-01-29T16:13:47.964Z,12.15
2023-01-29T16:16:52.647Z,10.33
2023-01-29T16:20:00.563Z,11.32
2023-01-29T16:23:05.078Z,12.02
2023-01-29T16:26:13.398Z,12.85
2023-01-29T16:29:21.937Z,13.45
2023-01-29T16:32:25.062Z,13.93
2023-01-29T16:35:28.154Z,15.00
2023-01-29T16:38:35.436Z,12.93
2023-01-29T16:41:38.805Z,13.13
2023-01-29T16:44:57.866Z,11.43
2023-01-29T16:48:19.181Z,12.47
2023-01-29T16:51:30.854Z,11.70
2023-01-29T16:54:33.893Z,11.60
2023-01-29T16:57:38.689Z,11.40
2023-01-29T17:00:53.243Z,13.82
2023-01-29T17:04:02.224Z,11.90
2023-01-29T17:07:05.494Z,10.45
2023-01-29T17:10:16.748Z,8.85
2023-01-29T17:13:43.073Z,10.98
2023-01-29T17:16:51.311Z,9.55
2023-01-29T17:19:54.338Z,10.03
2023-01-29T17:22:57.397Z,10.57
2023-01-29T17:26:00.446Z,10.98
2023-01-29T17:29:03.826Z,11.23
2023-01-29T17:32:06.963Z,9.18
2023-01-29T17:35:14.313Z,8.80
2023-01-29T17:38:26.011Z,9.57
2023-01-29T17:41:30.805Z,9.77
2023-01-29T17:44:34.482Z,8.23
2023-01-29T17:47:37.543Z,9.77
2023-01-29T17:50:43.705Z,9.33
2023-01-29T17:53:47.599Z,8.65
2023-01-29T17:56:52.468Z,8.57
2023-01-29T17:59:55.548Z,9.15
2023-01-29T18:03:03.201Z,8.45
2023-01-29T18:06:10.318Z,8.23
2023-01-29T18:09:15.015Z,8.68
2023-01-29T18:12:18.169Z,8.02
2023-01-29T18:15:21.382Z,8.63
2023-01-29T18:18:26.235Z,8.68
2023-01-29T18:21:29.374Z,9.20
2023-01-29T18:24:32.270Z,9.60
2023-01-29T18:27:35.337Z,10.45
2023-01-29T18:30:38.343Z,8.85
2023-01-29T18:33:41.571Z,7.82
2023-01-29T18:36:47.765Z,7.00
2023-01-29T18:39:50.847Z,8.25
2023-01-29T18:42:53.974Z,7.57
2023-01-29T18:46:00.109Z,7.53
2023-01-29T18:49:03.508Z,7.78
2023-01-29T18:52:07.781Z,7.70
2023-01-29T18:55:10.615Z,8.52
2023-01-29T18:58:33.917Z,8.82
2023-01-29T19:01:37.153Z,9.02
2023-01-29T19:04:40.915Z,10.13
2023-01-29T19:07:44.235Z,8.53
2023-01-29T19:10:47.529Z,9.48
2023-01-29T19:13:55.093Z,8.82
2023-01-29T19:16:58.371Z,8.68
2023-01-29T19:20:04.945Z,7.93
2023-01-29T19:23:09.058Z,8.47
2023-01-29T19:26:13.715Z,8.18
2023-01-29T19:29:18.187Z,7.63
2023-01-29T19:32:21.332Z,8.10
2023-01-29T19:35:24.585Z,7.82
2023-01-29T19:38:28.799Z,7.53
2023-01-29T19:41:32.886Z,8.50
2023-01-29T19:44:39.120Z,9.45
2023-01-29T19:47:43.839Z,10.23
2023-01-29T19:50:52.675Z,10.13
2023-01-29T19:53:55.413Z,10.17
2023-01-29T19:56:58.284Z,10.43
2023-01-29T20:00:01.827Z,8.77
2023-01-29T20:03:07.247Z,9.40
2023-01-29T20:06:11.479Z,7.47
2023-01-29T20:09:14.867Z,8.43
2023-01-29T20:12:18.189Z,7.85
2023-01-29T20:15:22.464Z,8.68
2023-01-29T20:18:25.868Z,8.32
2023-01-29T20:21:29.111Z,8.05
2023-01-29T20:24:34.731Z,8.27
2023-01-29T20:27:37.999Z,9.45
2023-01-29T20:30:45.618Z,8.57
2023-01-29T20:33:48.773Z,8.85
2023-01-29T20:36:51.780Z,9.73
2023-01-29T20:40:00.575Z,9.40
2023-01-29T20:43:05.504Z,9.77
2023-01-29T20:46:09.733Z,9.77
2023-01-29T20:49:12.865Z,8.77
2023-01-29T20:52:15.881Z,9.85
2023-01-29T20:55:19.042Z,9.73
2023-01-29T20:58:22.171Z,9.75
2023-01-29T21:01:25.274Z,11.55
2023-01-29T21:04:28.426Z,10.52
2023-01-29T21:07:31.596Z,11.20
2023-01-29T21:10:34.728Z,10.93
2023-01-29T21:13:38.082Z,12.27
2023-01-29T21:16:41.562Z,10.40
2023-01-29T21:19:44.858Z,10.07
2023-01-29T21:22:49.352Z,9.55
2023-01-29T21:25:52.568Z,9.07
2023-01-29T21:28:56.509Z,10.27
2023-01-29T21:31:59.703Z,12.65
2023-01-29T21:35:04.428Z,12.50
2023-01-29T21:38:07.583Z,12.70
2023-01-29T21:41:10.699Z,15.73
2023-01-29T21:44:13.906Z,17.00
2023-01-29T21:47:17.125Z,16.48
2023-01-29T21:50:20.888Z,16.98
2023-01-29T21:53:24.456Z,16.77
2023-01-29T21:56:27.977Z,15.67
2023-01-29T21:59:32.767Z,12.63
2023-01-29T22:02:36.028Z,13.40
2023-01-29T22:05:39.768Z,13.07
2023-01-29T22:08:43.080Z,13.35
2023-01-29T22:11:46.503Z,13.30
2023-01-29T22:14:50.979Z,12.98
2023-01-29T22:17:54.055Z,11.52
2023-01-29T22:20:57.744Z,10.98
2023-01-29T22:24:00.819Z,9.88
2023-01-29T22:27:04.058Z,10.67
2023-01-29T22:30:07.831Z,10.88
2023-01-29T22:33:11.221Z,10.68
2023-01-29T22:36:14.148Z,9.88
2023-01-29T22:39:17.284Z,8.68
2023-01-29T22:42:20.945Z,12.73
2023-01-29T22:45:23.937Z,13.80
2023-01-29T22:48:28.686Z,12.90
2023-01-29T22:51:32.754Z,13.98
2023-01-29T22:54:40.969Z,15.15
2023-01-29T22:57:44.029Z,14.80
2023-01-29T23:00:51.423Z,12.82
2023-01-29T23:03:54.758Z,14.35
2023-01-29T23:06:58.606Z,13.95
2023-01-29T23:10:01.712Z,12.85
2023-01-29T23:13:04.821Z,12.50
2023-01-29T23:16:08.579Z,10.30
2023-01-29T23:19:12.481Z,10.07
2023-01-29T23:22:18.322Z,11.75
2023-01-29T23:25:21.466Z,10.30
2023-01-29T23:28:24.742Z,10.80
2023-01-29T23:31:27.802Z,10.98
2023-01-29T23:34:31.040Z,12.23
2023-01-29T23:37:34.698Z,11.80
2023-01-29T23:40:37.654Z,12.15
2023-01-29T23:43:40.822Z,12.77
2023-01-29T23:46:44.504Z,17.33
2023-01-29T23:49:47.605Z,18.55
2023-01-29T23:52:50.847Z,20.00
2023-01-29T23:56:03.099Z,16.58
2023-01-29T23:59:07.316Z,14.53
